createdAt,value
2018-11-26T00:00:59.802Z,16.30
2018-11-26T00:03:26.031Z,16.20
2018-11-26T00:05:52.194Z,16.30
2018-11-26T00:08:18.506Z,16.30
2018-11-26T00:10:44.717Z,16.30
2018-11-26T00:13:10.950Z,16.20
2018-11-26T00:15:37.172Z,16.30
2018-11-26T00:18:03.402Z,16.30
2018-11-26T00:20:29.551Z,16.20
2018-11-26T00:22:55.860Z,16.20
2018-11-26T00:25:22.088Z,16.20
2018-11-26T00:27:48.315Z,16.20
2018-11-26T00:30:14.454Z,16.20
2018-11-26T00:32:40.623Z,16.20
2018-11-26T00:35:06.761Z,16.20
2018-11-26T00:37:33.843Z,16.20
2018-11-26T00:39:59.986Z,16.20
2018-11-26T00:42:26.146Z,16.20
2018-11-26T00:44:52.326Z,16.20
2018-11-26T00:47:18.546Z,16.20
2018-11-26T00:49:44.783Z,16.20
2018-11-26T00:52:11.002Z,16.20
2018-11-26T00:54:37.286Z,16.20
2018-11-26T00:57:03.675Z,16.20
2018-11-26T00:59:29.895Z,16.20
2018-11-26T01:01:56.123Z,16.20
2018-11-26T01:04:22.268Z,16.20
2018-11-26T01:06:48.587Z,16.20
2018-11-26T01:09:14.802Z,16.10
2018-11-26T01:11:41.030Z,16.10
2018-11-26T01:14:07.264Z,16.10
2018-11-26T01:16:33.495Z,16.10
2018-11-26T01:18:59.733Z,16.20
2018-11-26T01:21:25.951Z,16.10
2018-11-26T01:23:52.089Z,16.10
2018-11-26T01:26:18.406Z,16.10
2018-11-26T01:28:44.639Z,16.20
2018-11-26T01:31:10.864Z,16.10
2018-11-26T01:33:37.101Z,16.10
2018-11-26T01:36:03.317Z,16.10
2018-11-26T01:38:29.548Z,16.10
2018-11-26T01:40:55.784Z,16.10
2018-11-26T01:43:22.002Z,16.10
2018-11-26T01:45:48.143Z,16.10
2018-11-26T01:48:14.462Z,16.10
2018-11-26T01:50:40.690Z,16.10
2018-11-26T01:53:06.858Z,16.10
2018-11-26T01:55:33.138Z,16.10
2018-11-26T01:57:59.373Z,16.10
2018-11-26T02:00:25.515Z,16.10
2018-11-26T02:02:51.833Z,16.10
2018-11-26T02:05:17.986Z,16.10
2018-11-26T02:07:44.292Z,16.10
2018-11-26T02:10:10.514Z,16.10
2018-11-26T02:12:36.743Z,16.10
2018-11-26T02:15:02.911Z,16.10
2018-11-26T02:17:29.064Z,16.00
2018-11-26T02:19:55.422Z,16.00
2018-11-26T02:22:21.648Z,16.00
2018-11-26T02:24:47.806Z,16.00
2018-11-26T02:27:13.945Z,16.00
2018-11-26T02:29:40.138Z,16.00
2018-11-26T02:32:06.359Z,16.00
2018-11-26T02:34:32.592Z,16.00
2018-11-26T02:36:58.819Z,16.00
2018-11-26T02:39:25.042Z,16.00
2018-11-26T02:41:51.278Z,16.00
2018-11-26T02:44:17.514Z,16.00
2018-11-26T02:46:43.671Z,16.00
2018-11-26T02:49:09.958Z,16.00
2018-11-26T02:51:36.234Z,16.00
2018-11-26T02:54:02.424Z,16.00
2018-11-26T02:56:28.647Z,16.00
2018-11-26T02:58:54.866Z,16.00
2018-11-26T03:01:21.106Z,16.00
2018-11-26T03:03:47.331Z,16.00
2018-11-26T03:06:13.574Z,16.00
2018-11-26T03:08:39.787Z,16.00
2018-11-26T03:11:05.948Z,16.00
2018-11-26T03:13:32.093Z,16.00
2018-11-26T03:15:58.478Z,16.00
2018-11-26T03:18:24.699Z,16.00
2018-11-26T03:20:50.922Z,16.00
2018-11-26T03:23:17.155Z,16.00
2018-11-26T03:25:43.378Z,16.00
2018-11-26T03:28:09.615Z,16.00
2018-11-26T03:30:35.856Z,16.00
2018-11-26T03:33:02.064Z,16.00
2018-11-26T03:35:28.294Z,16.00
2018-11-26T03:37:54.531Z,16.00
2018-11-26T03:40:20.751Z,16.00
2018-11-26T03:42:46.907Z,16.00
2018-11-26T03:45:13.055Z,16.00
2018-11-26T03:47:39.228Z,16.00
2018-11-26T03:50:05.380Z,16.00
2018-11-26T03:52:31.547Z,16.00
2018-11-26T03:54:57.715Z,16.00
2018-11-26T03:57:23.939Z,16.00
2018-11-26T03:59:50.171Z,16.00
2018-11-26T04:02:16.328Z,16.00
2018-11-26T04:04:42.627Z,16.00
2018-11-26T04:07:08.867Z,16.00
2018-11-26T04:09:35.011Z,16.00
2018-11-26T04:12:01.315Z,16.00
2018-11-26T04:14:27.547Z,16.00
2018-11-26T04:16:53.771Z,16.00
2018-11-26T04:19:19.992Z,15.90
2018-11-26T04:21:46.224Z,16.00
2018-11-26T04:24:12.452Z,15.90
2018-11-26T04:26:38.683Z,15.90
2018-11-26T04:29:04.911Z,15.90
2018-11-26T04:31:31.134Z,15.90
2018-11-26T04:33:57.282Z,15.90
2018-11-26T04:36:23.593Z,15.90
2018-11-26T04:38:49.827Z,15.90
2018-11-26T04:41:16.044Z,15.90
2018-11-26T04:43:42.271Z,15.90
2018-11-26T04:46:08.498Z,15.90
2018-11-26T04:48:34.726Z,15.90
2018-11-26T04:51:00.973Z,15.90
2018-11-26T04:53:27.143Z,15.90
2018-11-26T04:55:53.410Z,15.90
2018-11-26T04:58:19.649Z,15.90
2018-11-26T05:00:45.799Z,15.90
2018-11-26T05:03:11.948Z,15.80
2018-11-26T05:05:38.854Z,15.80
2018-11-26T05:08:05.182Z,15.80
2018-11-26T05:10:31.402Z,15.90
2018-11-26T05:12:57.630Z,15.80
2018-11-26T05:15:23.861Z,15.80
2018-11-26T05:17:50.083Z,15.80
2018-11-26T05:20:16.222Z,15.80
2018-11-26T05:22:42.376Z,15.80
2018-11-26T05:25:08.544Z,15.80
2018-11-26T05:27:34.794Z,15.90
2018-11-26T05:30:01.021Z,15.90
2018-11-26T05:32:27.247Z,15.80
2018-11-26T05:34:53.483Z,15.80
2018-11-26T05:37:19.707Z,15.80
2018-11-26T05:39:45.940Z,15.80
2018-11-26T05:42:12.158Z,15.80
2018-11-26T05:44:38.402Z,15.80
2018-11-26T05:47:04.613Z,15.80
2018-11-26T05:49:30.846Z,15.80
2018-11-26T05:51:57.083Z,15.80
2018-11-26T05:54:23.226Z,15.80
2018-11-26T05:56:49.539Z,15.80
2018-11-26T05:59:15.771Z,15.80
2018-11-26T06:01:41.999Z,15.80
2018-11-26T06:04:08.217Z,15.80
2018-11-26T06:06:34.362Z,15.80
2018-11-26T06:09:00.682Z,15.80
2018-11-26T06:11:26.903Z,15.70
2018-11-26T06:13:53.133Z,15.70
2018-11-26T06:16:19.357Z,15.80
2018-11-26T06:18:45.583Z,15.70
2018-11-26T06:21:11.814Z,15.70
2018-11-26T06:23:38.044Z,15.70
2018-11-26T06:26:04.271Z,15.70
2018-11-26T06:28:30.494Z,15.80
2018-11-26T06:30:56.666Z,15.80
2018-11-26T06:33:22.950Z,15.80
2018-11-26T06:35:49.091Z,15.70
2018-11-26T06:38:15.410Z,15.70
2018-11-26T06:40:41.641Z,15.70
2018-11-26T06:43:07.862Z,15.70
2018-11-26T06:45:34.099Z,15.70
2018-11-26T06:48:00.323Z,15.70
2018-11-26T06:50:26.471Z,15.70
2018-11-26T06:52:52.778Z,15.70
2018-11-26T06:55:19.015Z,15.70
2018-11-26T06:57:45.244Z,15.70
2018-11-26T07:00:11.467Z,15.70
2018-11-26T07:02:37.700Z,15.70
2018-11-26T07:05:03.921Z,15.70
2018-11-26T07:07:30.150Z,15.70
2018-11-26T07:09:56.371Z,15.70
2018-11-26T07:12:22.533Z,15.70
2018-11-26T07:14:48.835Z,15.60
2018-11-26T07:17:15.063Z,15.70
2018-11-26T07:19:41.290Z,15.70
2018-11-26T07:22:07.517Z,15.60
2018-11-26T07:24:33.751Z,15.60
2018-11-26T07:26:59.982Z,15.60
2018-11-26T07:29:26.145Z,15.60
2018-11-26T07:31:52.432Z,15.60
2018-11-26T07:34:18.603Z,15.60
2018-11-26T07:36:44.891Z,15.60
2018-11-26T07:39:11.118Z,15.60
2018-11-26T07:41:37.338Z,15.60
2018-11-26T07:44:03.570Z,15.60
2018-11-26T07:46:29.797Z,15.60
2018-11-26T07:48:56.030Z,15.60
2018-11-26T07:51:22.181Z,15.60
2018-11-26T07:53:48.486Z,15.60
2018-11-26T07:56:14.716Z,15.50
2018-11-26T07:58:40.942Z,15.60
2018-11-26T08:01:07.175Z,15.50
2018-11-26T08:03:33.390Z,15.50
2018-11-26T08:05:59.635Z,15.50
2018-11-26T08:08:25.855Z,15.50
2018-11-26T08:10:52.079Z,15.50
2018-11-26T08:13:18.302Z,15.50
2018-11-26T08:15:44.538Z,15.50
2018-11-26T08:18:10.762Z,15.50
2018-11-26T08:20:36.994Z,15.50
2018-11-26T08:23:03.231Z,15.50
2018-11-26T08:25:29.458Z,15.50
2018-11-26T08:27:55.681Z,15.50
2018-11-26T08:30:21.823Z,15.50
2018-11-26T08:32:48.142Z,15.50
2018-11-26T08:35:14.294Z,15.40
2018-11-26T08:37:40.591Z,15.50
2018-11-26T08:40:06.823Z,15.40
2018-11-26T08:42:32.981Z,15.50
2018-11-26T08:44:59.275Z,15.50
2018-11-26T08:47:25.509Z,15.40
2018-11-26T08:49:51.730Z,15.40
2018-11-26T08:52:17.965Z,15.40
2018-11-26T08:54:44.183Z,15.50
2018-11-26T08:57:10.423Z,15.50
2018-11-26T08:59:36.647Z,15.40
2018-11-26T09:02:02.871Z,15.40
2018-11-26T09:04:29.107Z,15.50
2018-11-26T09:06:55.337Z,15.40
2018-11-26T09:09:21.566Z,15.40
2018-11-26T09:11:47.792Z,15.40
2018-11-26T09:14:14.016Z,15.40
2018-11-26T09:16:40.243Z,15.40
2018-11-26T09:19:06.466Z,15.40
2018-11-26T09:21:32.703Z,15.40
2018-11-26T09:23:58.922Z,15.40
2018-11-26T09:26:25.072Z,15.40
2018-11-26T09:28:51.223Z,15.40
2018-11-26T09:31:19.051Z,15.40
2018-11-26T09:33:45.288Z,15.40
2018-11-26T09:36:11.498Z,15.40
2018-11-26T09:38:37.644Z,15.40
2018-11-26T09:41:03.957Z,15.40
2018-11-26T09:43:30.099Z,15.40
2018-11-26T09:45:56.426Z,15.40
2018-11-26T09:48:22.611Z,15.40
2018-11-26T09:50:49.530Z,15.40
2018-11-26T09:53:15.717Z,15.40
2018-11-26T09:55:41.947Z,15.30
2018-11-26T09:58:08.174Z,15.40
2018-11-26T10:00:34.394Z,15.30
2018-11-26T10:03:00.576Z,15.40
2018-11-26T10:05:26.863Z,15.40
2018-11-26T10:07:52.995Z,15.40
2018-11-26T10:10:19.306Z,15.30
2018-11-26T10:12:45.535Z,15.40
2018-11-26T10:15:11.762Z,15.40
2018-11-26T10:17:37.906Z,15.40
2018-11-26T10:20:04.223Z,15.40
2018-11-26T10:22:30.451Z,15.40
2018-11-26T10:24:56.611Z,15.40
2018-11-26T10:27:22.767Z,15.40
2018-11-26T10:29:49.157Z,15.40
2018-11-26T10:32:15.369Z,15.40
2018-11-26T10:34:41.596Z,15.30
2018-11-26T10:37:07.821Z,15.40
2018-11-26T10:39:34.050Z,15.40
2018-11-26T10:42:01.103Z,15.40
2018-11-26T10:44:27.323Z,15.30
2018-11-26T10:46:53.551Z,15.30
2018-11-26T10:49:19.778Z,15.40
2018-11-26T10:51:47.274Z,15.40
2018-11-26T10:54:13.983Z,15.30
2018-11-26T10:56:40.208Z,15.30
2018-11-26T10:59:06.431Z,15.30
2018-11-26T11:01:32.660Z,15.40
2018-11-26T11:03:58.894Z,15.40
2018-11-26T11:06:25.122Z,15.30
2018-11-26T11:08:51.271Z,15.30
2018-11-26T11:11:23.169Z,15.30
2018-11-26T11:13:43.807Z,15.30
2018-11-26T11:16:10.031Z,15.30
2018-11-26T11:18:36.262Z,15.30
2018-11-26T11:21:02.399Z,15.30
2018-11-26T11:23:28.546Z,15.30
2018-11-26T11:25:54.751Z,15.30
2018-11-26T11:28:20.977Z,15.30
2018-11-26T11:30:47.199Z,15.30
2018-11-26T11:35:38.849Z,15.30
2018-11-26T11:38:05.072Z,15.30
2018-11-26T11:40:31.292Z,15.30
2018-11-26T11:42:57.442Z,15.30
2018-11-26T11:45:23.751Z,15.30
2018-11-26T11:47:49.984Z,15.30
2018-11-26T11:50:16.208Z,15.30
2018-11-26T11:52:42.433Z,15.30
2018-11-26T11:55:08.659Z,15.30
2018-11-26T11:57:34.892Z,15.30
2018-11-26T12:00:01.124Z,15.30
2018-11-26T12:02:27.267Z,15.30
2018-11-26T12:04:53.572Z,15.30
2018-11-26T12:07:19.808Z,15.30
2018-11-26T12:09:45.958Z,15.30
2018-11-26T12:12:12.259Z,15.30
2018-11-26T12:14:38.399Z,15.30
2018-11-26T12:17:04.711Z,15.30
2018-11-26T12:19:30.953Z,15.30
2018-11-26T12:21:57.171Z,15.30
2018-11-26T12:24:23.396Z,15.30
2018-11-26T12:26:49.637Z,15.30
2018-11-26T12:29:15.864Z,15.30
2018-11-26T12:31:42.088Z,15.30
2018-11-26T12:34:08.320Z,15.30
2018-11-26T12:36:34.492Z,15.30
2018-11-26T12:39:00.775Z,15.20
2018-11-26T12:41:26.996Z,15.20
2018-11-26T12:43:53.144Z,15.30
2018-11-26T12:46:19.320Z,15.30
2018-11-26T12:48:46.235Z,15.30
2018-11-26T12:51:12.528Z,15.20
2018-11-26T12:53:38.671Z,15.20
2018-11-26T12:56:04.984Z,15.30
2018-11-26T12:58:31.216Z,15.30
2018-11-26T13:00:57.367Z,15.20
2018-11-26T13:03:23.672Z,15.30
2018-11-26T13:05:49.901Z,15.30
2018-11-26T13:08:17.002Z,15.30
2018-11-26T13:10:42.368Z,15.30
2018-11-26T13:13:08.580Z,15.30
2018-11-26T13:15:34.812Z,15.20
2018-11-26T13:18:00.958Z,15.20
2018-11-26T13:20:27.108Z,15.30
2018-11-26T13:22:53.300Z,15.20
2018-11-26T13:25:19.522Z,15.20
2018-11-26T13:27:45.743Z,15.30
2018-11-26T13:30:11.980Z,15.30
2018-11-26T13:32:38.200Z,15.20
2018-11-26T13:35:04.424Z,15.30
2018-11-26T13:37:30.664Z,15.20
2018-11-26T13:39:56.816Z,15.30
2018-11-26T13:42:23.119Z,15.30
2018-11-26T13:44:49.344Z,15.30
2018-11-26T13:47:15.487Z,15.30
2018-11-26T13:49:41.809Z,15.30
2018-11-26T13:52:08.027Z,15.20
2018-11-26T13:54:34.176Z,15.20
2018-11-26T13:57:00.483Z,15.30
2018-11-26T13:59:26.631Z,15.30
2018-11-26T14:01:52.940Z,15.20
2018-11-26T14:04:19.176Z,15.20
2018-11-26T14:06:45.395Z,15.30
2018-11-26T14:09:11.627Z,15.20
2018-11-26T14:11:37.860Z,15.30
2018-11-26T14:14:04.088Z,15.20
2018-11-26T14:16:30.317Z,15.20
2018-11-26T14:18:56.537Z,15.20
2018-11-26T14:21:22.772Z,15.20
2018-11-26T14:23:49.001Z,15.30
2018-11-26T14:26:15.228Z,15.20
2018-11-26T14:28:41.451Z,15.20
2018-11-26T14:31:07.677Z,15.30
2018-11-26T14:33:33.913Z,15.30
2018-11-26T14:36:00.135Z,15.20
2018-11-26T14:38:26.356Z,15.30
2018-11-26T14:40:52.598Z,15.30
2018-11-26T14:43:18.825Z,15.20
2018-11-26T14:45:45.043Z,15.20
2018-11-26T14:48:11.277Z,15.20
2018-11-26T14:50:37.512Z,15.20
2018-11-26T14:53:03.732Z,15.20
2018-11-26T14:55:29.958Z,15.20
2018-11-26T14:57:56.196Z,15.20
2018-11-26T15:00:22.411Z,15.20
2018-11-26T15:02:48.646Z,15.20
2018-11-26T15:05:14.869Z,15.20
2018-11-26T15:07:41.020Z,15.20
2018-11-26T15:10:07.336Z,15.20
2018-11-26T15:12:33.480Z,15.20
2018-11-26T15:14:59.784Z,15.20
2018-11-26T15:17:26.008Z,15.20
2018-11-26T15:19:52.152Z,15.20
2018-11-26T15:22:18.309Z,15.20
2018-11-26T15:24:44.460Z,15.20
2018-11-26T15:27:11.549Z,15.20
2018-11-26T15:29:37.775Z,15.10
2018-11-26T15:32:03.996Z,15.20
2018-11-26T15:34:30.225Z,15.20
2018-11-26T15:37:02.397Z,15.20
2018-11-26T15:39:28.619Z,15.20
2018-11-26T15:41:54.847Z,15.10
2018-11-26T15:44:20.993Z,15.20
2018-11-26T15:46:47.308Z,15.20
2018-11-26T15:49:13.543Z,15.10
2018-11-26T15:51:39.763Z,15.10
2018-11-26T15:54:05.984Z,15.20
2018-11-26T15:56:32.221Z,15.20
2018-11-26T15:58:58.444Z,15.20
2018-11-26T16:01:24.672Z,15.20
2018-11-26T16:03:50.825Z,15.10
2018-11-26T16:06:16.977Z,15.20
2018-11-26T16:08:43.352Z,15.10
2018-11-26T16:11:09.591Z,15.20
2018-11-26T16:13:35.822Z,15.10
2018-11-26T16:16:02.044Z,15.20
2018-11-26T16:18:28.283Z,15.10
2018-11-26T16:20:54.496Z,15.20
2018-11-26T16:23:20.736Z,15.10
2018-11-26T16:25:46.960Z,15.10
2018-11-26T16:28:13.190Z,15.20
2018-11-26T16:30:39.344Z,15.10
2018-11-26T16:33:05.647Z,15.10
2018-11-26T16:35:31.873Z,15.10
2018-11-26T16:37:58.091Z,15.10
2018-11-26T16:40:24.325Z,15.20
2018-11-26T16:42:50.547Z,15.10
2018-11-26T16:45:16.779Z,15.20
2018-11-26T16:47:43.007Z,15.20
2018-11-26T16:50:09.232Z,15.20
2018-11-26T16:52:35.463Z,15.10
2018-11-26T16:55:01.696Z,15.10
2018-11-26T16:57:27.916Z,15.10
2018-11-26T16:59:54.148Z,15.10
2018-11-26T17:02:20.372Z,15.10
2018-11-26T17:04:46.527Z,15.10
2018-11-26T17:07:12.842Z,15.10
2018-11-26T17:09:39.059Z,15.10
2018-11-26T17:12:05.293Z,15.10
2018-11-26T17:14:31.445Z,15.10
2018-11-26T17:16:57.592Z,15.10
2018-11-26T17:19:23.760Z,15.10
2018-11-26T17:21:50.008Z,15.10
2018-11-26T17:24:16.230Z,15.10
2018-11-26T17:26:42.467Z,15.10
2018-11-26T17:29:08.681Z,15.10
2018-11-26T17:31:34.913Z,15.10
2018-11-26T17:34:01.145Z,15.10
2018-11-26T17:36:27.369Z,15.10
2018-11-26T17:38:53.591Z,15.10
2018-11-26T17:41:19.740Z,15.10
2018-11-26T17:43:46.052Z,15.10
2018-11-26T17:46:12.288Z,15.00
2018-11-26T17:48:38.511Z,15.10
2018-11-26T17:51:08.404Z,15.10
2018-11-26T17:53:34.548Z,15.10
2018-11-26T17:56:00.713Z,15.00
2018-11-26T17:58:26.907Z,15.00
2018-11-26T18:00:53.132Z,15.00
2018-11-26T18:03:19.356Z,15.00
2018-11-26T18:05:45.592Z,15.00
2018-11-26T18:08:11.820Z,15.00
2018-11-26T18:10:38.040Z,15.00
2018-11-26T18:13:04.276Z,15.00
2018-11-26T18:15:30.500Z,15.00
2018-11-26T18:17:56.732Z,15.00
2018-11-26T18:20:22.947Z,15.00
2018-11-26T18:22:49.113Z,15.00
2018-11-26T18:25:15.406Z,15.00
2018-11-26T18:27:41.635Z,15.00
2018-11-26T18:30:07.796Z,15.00
2018-11-26T18:32:33.948Z,15.00
2018-11-26T18:35:00.106Z,15.00
2018-11-26T18:37:26.351Z,15.00
2018-11-26T18:39:52.577Z,15.00
2018-11-26T18:42:18.879Z,15.00
2018-11-26T18:44:45.036Z,15.00
2018-11-26T18:47:11.260Z,15.00
2018-11-26T18:49:37.495Z,15.00
2018-11-26T18:52:03.724Z,15.00
2018-11-26T18:54:29.939Z,15.00
2018-11-26T18:56:56.177Z,15.00
2018-11-26T18:59:22.332Z,15.00
2018-11-26T19:01:48.637Z,15.00
2018-11-26T19:04:14.864Z,15.00
2018-11-26T19:06:41.087Z,14.90
2018-11-26T19:09:07.308Z,14.90
2018-11-26T19:11:33.544Z,14.90
2018-11-26T19:13:59.769Z,14.90
2018-11-26T19:16:25.999Z,14.90
2018-11-26T19:18:52.227Z,14.90
2018-11-26T19:21:18.460Z,14.90
2018-11-26T19:23:44.689Z,14.90
2018-11-26T19:26:10.911Z,14.90
2018-11-26T19:28:37.142Z,14.90
2018-11-26T19:31:03.310Z,14.90
2018-11-26T19:33:29.464Z,14.90
2018-11-26T19:35:55.828Z,14.90
2018-11-26T19:38:22.053Z,14.90
2018-11-26T19:40:48.275Z,14.90
2018-11-26T19:43:14.518Z,14.90
2018-11-26T19:45:41.555Z,14.90
2018-11-26T19:48:07.788Z,14.90
2018-11-26T19:50:34.012Z,14.90
2018-11-26T19:53:00.180Z,14.90
2018-11-26T19:55:27.291Z,14.90
2018-11-26T19:57:53.520Z,14.90
2018-11-26T20:00:19.739Z,14.90
2018-11-26T20:02:45.972Z,14.90
2018-11-26T20:05:12.200Z,14.90
2018-11-26T20:07:38.434Z,14.90
2018-11-26T20:10:04.651Z,14.90
2018-11-26T20:12:30.816Z,14.90
2018-11-26T20:14:57.121Z,14.90
2018-11-26T20:17:23.284Z,14.90
2018-11-26T20:19:49.568Z,14.90
2018-11-26T20:22:15.806Z,14.90
2018-11-26T20:24:42.021Z,14.90
2018-11-26T20:27:08.252Z,14.90
2018-11-26T20:29:34.408Z,14.90
2018-11-26T20:32:00.708Z,14.90
2018-11-26T20:34:26.936Z,14.90
2018-11-26T20:36:53.164Z,14.90
2018-11-26T20:39:19.387Z,14.90
2018-11-26T20:41:45.624Z,14.90
2018-11-26T20:44:11.845Z,14.90
2018-11-26T20:46:38.071Z,14.90
2018-11-26T20:49:04.308Z,14.90
2018-11-26T20:51:30.532Z,14.90
2018-11-26T20:53:56.683Z,14.90
2018-11-26T20:56:22.920Z,14.80
2018-11-26T20:58:49.060Z,14.90
2018-11-26T21:01:15.239Z,14.90
2018-11-26T21:03:41.392Z,14.80
2018-11-26T21:06:07.544Z,14.80
2018-11-26T21:08:34.476Z,14.80
2018-11-26T21:11:00.763Z,14.80
2018-11-26T21:13:26.996Z,14.80
2018-11-26T21:15:53.223Z,14.80
2018-11-26T21:18:19.456Z,14.80
2018-11-26T21:20:45.613Z,14.80
2018-11-26T21:23:11.911Z,14.80
2018-11-26T21:25:38.293Z,14.80
2018-11-26T21:28:04.370Z,14.80
2018-11-26T21:30:30.592Z,14.80
2018-11-26T21:32:56.737Z,14.80
2018-11-26T21:35:23.051Z,14.80
2018-11-26T21:37:49.196Z,14.80
2018-11-26T21:40:20.363Z,14.80
2018-11-26T21:42:41.734Z,14.80
2018-11-26T21:45:08.575Z,14.80
2018-11-26T21:47:34.812Z,14.80
2018-11-26T21:50:01.032Z,14.80
2018-11-26T21:52:27.190Z,14.80
2018-11-26T21:54:53.492Z,14.80
2018-11-26T21:57:19.725Z,14.80
2018-11-26T21:59:45.953Z,14.80
2018-11-26T22:02:12.176Z,14.80
2018-11-26T22:04:38.323Z,14.80
2018-11-26T22:07:04.491Z,14.80
2018-11-26T22:09:30.656Z,14.80
2018-11-26T22:11:56.803Z,14.80
2018-11-26T22:14:23.108Z,14.80
2018-11-26T22:16:49.338Z,14.80
2018-11-26T22:19:15.483Z,14.80
2018-11-26T22:21:41.796Z,14.80
2018-11-26T22:24:08.028Z,14.80
2018-11-26T22:26:34.253Z,14.80
2018-11-26T22:29:00.479Z,14.80
2018-11-26T22:31:26.715Z,14.80
2018-11-26T22:33:52.932Z,14.80
2018-11-26T22:36:19.167Z,14.70
2018-11-26T22:38:45.397Z,14.80
2018-11-26T22:41:11.616Z,14.80
2018-11-26T22:43:37.855Z,14.80
2018-11-26T22:46:04.079Z,14.80
2018-11-26T22:48:30.312Z,14.80
2018-11-26T22:50:56.530Z,14.80
2018-11-26T22:53:22.768Z,14.80
2018-11-26T22:55:48.996Z,14.80
2018-11-26T22:58:15.228Z,14.70
2018-11-26T23:00:41.439Z,14.80
2018-11-26T23:03:07.672Z,14.80
2018-11-26T23:05:33.900Z,14.70
2018-11-26T23:08:00.044Z,14.80
2018-11-26T23:10:26.360Z,14.70
2018-11-26T23:12:52.584Z,14.70
2018-11-26T23:15:18.819Z,14.70
2018-11-26T23:17:45.040Z,14.70
2018-11-26T23:20:11.184Z,14.80
2018-11-26T23:22:37.500Z,14.80
2018-11-26T23:25:03.728Z,14.80
2018-11-26T23:27:29.959Z,14.80
2018-11-26T23:29:56.185Z,14.80
2018-11-26T23:32:22.338Z,14.70
2018-11-26T23:34:48.648Z,14.70
2018-11-26T23:37:14.871Z,14.70
2018-11-26T23:39:41.096Z,14.70
2018-11-26T23:42:07.320Z,14.70
2018-11-26T23:44:33.547Z,14.70
2018-11-26T23:46:59.775Z,14.70
2018-11-26T23:49:26.016Z,14.70
2018-11-26T23:51:52.240Z,14.70
2018-11-26T23:54:18.469Z,14.70
2018-11-26T23:56:44.688Z,14.70
2018-11-26T23:59:10.837Z,14.70
